sensor_id;sensor_type;location;lat;lon;timestamp;P1;durP1;ratioP1;P2;durP2;ratioP2
61525;SDS011;47394;41.366;-8.738;2022-09-09T00:00:17;17.45;;;8.15;;
61525;SDS011;47394;41.366;-8.738;2022-09-09T00:02:20;23.85;;;9.07;;
61525;SDS011;47394;41.366;-8.738;2022-09-09T00:04:27;20.95;;;8.90;;
61525;SDS011;47394;41.366;-8.738;2022-09-09T00:06:30;20.75;;;9.30;;
61525;SDS011;47394;41.366;-8.738;2022-09-09T00:10:54;19.02;;;8.90;;
61525;SDS011;47394;41.366;-8.738;2022-09-09T00:13:16;21.17;;;9.55;;
61525;SDS011;47394;41.366;-8.738;2022-09-09T00:15:29;23.20;;;9.82;;
61525;SDS011;47394;41.366;-8.738;2022-09-09T00:17:42;26.20;;;10.93;;
61525;SDS011;47394;41.366;-8.738;2022-09-09T00:24:33;27.70;;;11.25;;
61525;SDS011;47394;41.366;-8.738;2022-09-09T00:26:40;27.27;;;11.93;;
61525;SDS011;47394;41.366;-8.738;2022-09-09T00:28:52;32.28;;;12.38;;
61525;SDS011;47394;41.366;-8.738;2022-09-09T00:31:04;40.25;;;12.60;;
61525;SDS011;47394;41.366;-8.738;2022-09-09T00:33:12;23.90;;;11.27;;
61525;SDS011;47394;41.366;-8.738;2022-09-09T00:35:23;23.60;;;11.43;;
61525;SDS011;47394;41.366;-8.738;2022-09-09T00:37:32;30.38;;;11.90;;
61525;SDS011;47394;41.366;-8.738;2022-09-09T00:39:41;26.05;;;10.95;;
61525;SDS011;47394;41.366;-8.738;2022-09-09T00:41:59;22.02;;;11.45;;
61525;SDS011;47394;41.366;-8.738;2022-09-09T00:48:35;27.77;;;12.80;;
61525;SDS011;47394;41.366;-8.738;2022-09-09T00:53:09;26.02;;;13.57;;
61525;SDS011;47394;41.366;-8.738;2022-09-09T00:57:32;27.45;;;12.68;;
61525;SDS011;47394;41.366;-8.738;2022-09-09T00:59:42;23.33;;;11.77;;
61525;SDS011;47394;41.366;-8.738;2022-09-09T01:01:48;27.25;;;12.75;;
61525;SDS011;47394;41.366;-8.738;2022-09-09T01:03:50;26.02;;;12.57;;
61525;SDS011;47394;41.366;-8.738;2022-09-09T01:08:14;23.48;;;11.15;;
61525;SDS011;47394;41.366;-8.738;2022-09-09T01:12:51;23.73;;;11.73;;
61525;SDS011;47394;41.366;-8.738;2022-09-09T01:15:01;27.02;;;12.38;;
61525;SDS011;47394;41.366;-8.738;2022-09-09T01:17:26;28.20;;;12.77;;
61525;SDS011;47394;41.366;-8.738;2022-09-09T01:22:00;25.25;;;12.52;;
61525;SDS011;47394;41.366;-8.738;2022-09-09T01:24:18;28.90;;;14.05;;
61525;SDS011;47394;41.366;-8.738;2022-09-09T01:26:46;28.42;;;13.05;;
61525;SDS011;47394;41.366;-8.738;2022-09-09T01:28:57;32.85;;;14.70;;
61525;SDS011;47394;41.366;-8.738;2022-09-09T01:31:09;20.40;;;10.02;;
61525;SDS011;47394;41.366;-8.738;2022-09-09T01:33:18;19.52;;;10.35;;
61525;SDS011;47394;41.366;-8.738;2022-09-09T01:37:22;20.63;;;11.73;;
61525;SDS011;47394;41.366;-8.738;2022-09-09T01:39:23;24.95;;;11.85;;
61525;SDS011;47394;41.366;-8.738;2022-09-09T01:41:32;23.25;;;12.48;;
61525;SDS011;47394;41.366;-8.738;2022-09-09T01:43:37;25.00;;;13.45;;
61525;SDS011;47394;41.366;-8.738;2022-09-09T01:45:38;26.58;;;13.68;;
61525;SDS011;47394;41.366;-8.738;2022-09-09T01:47:41;28.35;;;14.88;;
61525;SDS011;47394;41.366;-8.738;2022-09-09T01:49:51;25.00;;;13.30;;
61525;SDS011;47394;41.366;-8.738;2022-09-09T01:51:57;25.17;;;13.52;;
61525;SDS011;47394;41.366;-8.738;2022-09-09T01:54:04;27.45;;;13.88;;
61525;SDS011;47394;41.366;-8.738;2022-09-09T01:56:12;22.45;;;12.32;;
61525;SDS011;47394;41.366;-8.738;2022-09-09T02:03:28;27.70;;;13.73;;
61525;SDS011;47394;41.366;-8.738;2022-09-09T02:05:41;24.88;;;13.27;;
61525;SDS011;47394;41.366;-8.738;2022-09-09T02:08:00;33.13;;;15.43;;
61525;SDS011;47394;41.366;-8.738;2022-09-09T02:13:12;31.75;;;15.82;;
61525;SDS011;47394;41.366;-8.738;2022-09-09T02:15:17;27.13;;;14.75;;
61525;SDS011;47394;41.366;-8.738;2022-09-09T02:17:28;26.73;;;15.10;;
61525;SDS011;47394;41.366;-8.738;2022-09-09T02:19:44;30.55;;;15.18;;
61525;SDS011;47394;41.366;-8.738;2022-09-09T02:21:59;28.33;;;14.38;;
61525;SDS011;47394;41.366;-8.738;2022-09-09T02:24:02;29.23;;;16.27;;
61525;SDS011;47394;41.366;-8.738;2022-09-09T02:26:10;27.38;;;16.63;;
61525;SDS011;47394;41.366;-8.738;2022-09-09T02:28:16;26.50;;;15.88;;
61525;SDS011;47394;41.366;-8.738;2022-09-09T02:30:20;25.23;;;16.00;;
61525;SDS011;47394;41.366;-8.738;2022-09-09T02:32:28;24.20;;;14.80;;
61525;SDS011;47394;41.366;-8.738;2022-09-09T02:34:34;29.23;;;16.50;;
61525;SDS011;47394;41.366;-8.738;2022-09-09T02:36:39;30.65;;;16.58;;
61525;SDS011;47394;41.366;-8.738;2022-09-09T02:40:48;27.95;;;16.63;;
61525;SDS011;47394;41.366;-8.738;2022-09-09T02:42:49;26.13;;;15.18;;
61525;SDS011;47394;41.366;-8.738;2022-09-09T02:44:52;19.17;;;13.23;;
61525;SDS011;47394;41.366;-8.738;2022-09-09T02:49:57;27.83;;;16.95;;
61525;SDS011;47394;41.366;-8.738;2022-09-09T02:51:51;28.85;;;16.38;;
61525;SDS011;47394;41.366;-8.738;2022-09-09T02:53:59;33.63;;;18.15;;
61525;SDS011;47394;41.366;-8.738;2022-09-09T02:56:35;25.40;;;15.48;;
61525;SDS011;47394;41.366;-8.738;2022-09-09T02:58:42;29.58;;;14.45;;
61525;SDS011;47394;41.366;-8.738;2022-09-09T03:00:45;28.35;;;14.23;;
61525;SDS011;47394;41.366;-8.738;2022-09-09T03:02:47;26.67;;;13.25;;
61525;SDS011;47394;41.366;-8.738;2022-09-09T03:04:48;20.88;;;12.73;;
61525;SDS011;47394;41.366;-8.738;2022-09-09T03:06:52;28.00;;;15.52;;
61525;SDS011;47394;41.366;-8.738;2022-09-09T03:08:54;20.52;;;14.15;;
61525;SDS011;47394;41.366;-8.738;2022-09-09T03:10:59;18.75;;;12.05;;
61525;SDS011;47394;41.366;-8.738;2022-09-09T03:13:05;17.70;;;10.55;;
61525;SDS011;47394;41.366;-8.738;2022-09-09T03:15:09;16.95;;;10.02;;
61525;SDS011;47394;41.366;-8.738;2022-09-09T03:17:12;16.52;;;11.05;;
61525;SDS011;47394;41.366;-8.738;2022-09-09T03:19:20;17.95;;;10.40;;
61525;SDS011;47394;41.366;-8.738;2022-09-09T03:21:21;19.77;;;10.85;;
61525;SDS011;47394;41.366;-8.738;2022-09-09T03:23:23;17.42;;;10.95;;
61525;SDS011;47394;41.366;-8.738;2022-09-09T03:25:25;16.98;;;11.00;;
61525;SDS011;47394;41.366;-8.738;2022-09-09T03:27:27;18.75;;;11.55;;
61525;SDS011;47394;41.366;-8.738;2022-09-09T03:29:29;20.75;;;12.10;;
61525;SDS011;47394;41.366;-8.738;2022-09-09T03:31:32;18.92;;;13.30;;
61525;SDS011;47394;41.366;-8.738;2022-09-09T03:33:34;31.30;;;15.75;;
61525;SDS011;47394;41.366;-8.738;2022-09-09T03:37:37;18.38;;;12.90;;
61525;SDS011;47394;41.366;-8.738;2022-09-09T03:39:39;19.98;;;13.02;;
61525;SDS011;47394;41.366;-8.738;2022-09-09T03:41:41;24.50;;;13.80;;
61525;SDS011;47394;41.366;-8.738;2022-09-09T03:43:41;25.10;;;13.35;;
61525;SDS011;47394;41.366;-8.738;2022-09-09T03:45:46;22.25;;;15.52;;
61525;SDS011;47394;41.366;-8.738;2022-09-09T03:47:50;29.73;;;14.98;;
61525;SDS011;47394;41.366;-8.738;2022-09-09T03:49:51;25.67;;;14.02;;
61525;SDS011;47394;41.366;-8.738;2022-09-09T03:51:51;23.00;;;16.13;;
61525;SDS011;47394;41.366;-8.738;2022-09-09T03:53:52;23.52;;;15.05;;
61525;SDS011;47394;41.366;-8.738;2022-09-09T03:55:56;26.17;;;17.25;;
61525;SDS011;47394;41.366;-8.738;2022-09-09T03:58:01;30.60;;;16.98;;
61525;SDS011;47394;41.366;-8.738;2022-09-09T04:00:03;28.00;;;15.73;;
61525;SDS011;47394;41.366;-8.738;2022-09-09T04:02:16;28.33;;;15.82;;
61525;SDS011;47394;41.366;-8.738;2022-09-09T04:04:17;26.25;;;17.13;;
61525;SDS011;47394;41.366;-8.738;2022-09-09T04:06:18;26.17;;;16.63;;
61525;SDS011;47394;41.366;-8.738;2022-09-09T04:08:21;24.60;;;16.95;;
61525;SDS011;47394;41.366;-8.738;2022-09-09T04:10:23;24.27;;;15.50;;
61525;SDS011;47394;41.366;-8.738;2022-09-09T04:12:24;22.40;;;15.65;;
61525;SDS011;47394;41.366;-8.738;2022-09-09T04:14:25;19.80;;;13.50;;
61525;SDS011;47394;41.366;-8.738;2022-09-09T04:16:29;20.15;;;13.40;;
61525;SDS011;47394;41.366;-8.738;2022-09-09T04:18:30;22.73;;;15.00;;
61525;SDS011;47394;41.366;-8.738;2022-09-09T04:20:31;28.42;;;17.05;;
61525;SDS011;47394;41.366;-8.738;2022-09-09T04:22:33;21.13;;;15.47;;
61525;SDS011;47394;41.366;-8.738;2022-09-09T04:24:34;25.52;;;17.17;;
61525;SDS011;47394;41.366;-8.738;2022-09-09T04:26:36;26.15;;;15.88;;
61525;SDS011;47394;41.366;-8.738;2022-09-09T04:28:37;26.88;;;16.33;;
61525;SDS011;47394;41.366;-8.738;2022-09-09T04:30:45;26.23;;;17.45;;
61525;SDS011;47394;41.366;-8.738;2022-09-09T04:32:46;29.05;;;17.92;;
61525;SDS011;47394;41.366;-8.738;2022-09-09T04:34:48;26.38;;;17.38;;
61525;SDS011;47394;41.366;-8.738;2022-09-09T04:36:48;25.85;;;16.67;;
61525;SDS011;47394;41.366;-8.738;2022-09-09T04:38:49;28.85;;;17.98;;
61525;SDS011;47394;41.366;-8.738;2022-09-09T04:40:51;23.63;;;16.50;;
61525;SDS011;47394;41.366;-8.738;2022-09-09T04:42:53;28.80;;;18.75;;
61525;SDS011;47394;41.366;-8.738;2022-09-09T04:44:53;24.80;;;16.42;;
61525;SDS011;47394;41.366;-8.738;2022-09-09T04:46:54;21.98;;;14.02;;
61525;SDS011;47394;41.366;-8.738;2022-09-09T04:48:55;21.02;;;14.23;;
61525;SDS011;47394;41.366;-8.738;2022-09-09T04:51:02;31.20;;;18.77;;
61525;SDS011;47394;41.366;-8.738;2022-09-09T04:53:05;33.55;;;19.10;;
61525;SDS011;47394;41.366;-8.738;2022-09-09T04:55:08;24.77;;;17.30;;
61525;SDS011;47394;41.366;-8.738;2022-09-09T04:57:10;31.08;;;18.60;;
61525;SDS011;47394;41.366;-8.738;2022-09-09T04:59:11;35.80;;;21.15;;
61525;SDS011;47394;41.366;-8.738;2022-09-09T05:01:18;32.33;;;20.08;;
61525;SDS011;47394;41.366;-8.738;2022-09-09T05:03:23;33.88;;;21.45;;
61525;SDS011;47394;41.366;-8.738;2022-09-09T05:05:24;32.42;;;20.90;;
61525;SDS011;47394;41.366;-8.738;2022-09-09T05:07:26;35.40;;;20.63;;
61525;SDS011;47394;41.366;-8.738;2022-09-09T05:09:27;30.90;;;19.45;;
61525;SDS011;47394;41.366;-8.738;2022-09-09T05:11:30;38.00;;;22.20;;
61525;SDS011;47394;41.366;-8.738;2022-09-09T05:13:41;36.33;;;22.27;;
61525;SDS011;47394;41.366;-8.738;2022-09-09T05:15:42;45.05;;;26.00;;
61525;SDS011;47394;41.366;-8.738;2022-09-09T05:17:52;32.45;;;19.40;;
61525;SDS011;47394;41.366;-8.738;2022-09-09T05:19:53;34.67;;;18.58;;
61525;SDS011;47394;41.366;-8.738;2022-09-09T05:21:54;31.30;;;18.35;;
61525;SDS011;47394;41.366;-8.738;2022-09-09T05:24:06;36.90;;;22.45;;
61525;SDS011;47394;41.366;-8.738;2022-09-09T05:26:08;36.85;;;21.35;;
61525;SDS011;47394;41.366;-8.738;2022-09-09T05:28:12;43.88;;;23.30;;
61525;SDS011;47394;41.366;-8.738;2022-09-09T05:30:13;36.53;;;20.77;;
61525;SDS011;47394;41.366;-8.738;2022-09-09T05:32:14;42.47;;;22.33;;
61525;SDS011;47394;41.366;-8.738;2022-09-09T05:34:21;35.10;;;21.00;;
61525;SDS011;47394;41.366;-8.738;2022-09-09T05:36:24;35.60;;;21.02;;
61525;SDS011;47394;41.366;-8.738;2022-09-09T05:38:29;31.73;;;19.25;;
61525;SDS011;47394;41.366;-8.738;2022-09-09T05:40:30;31.35;;;18.60;;
61525;SDS011;47394;41.366;-8.738;2022-09-09T05:42:31;31.95;;;18.40;;
61525;SDS011;47394;41.366;-8.738;2022-09-09T05:44:33;27.63;;;16.67;;
61525;SDS011;47394;41.366;-8.738;2022-09-09T05:46:35;35.80;;;20.92;;
61525;SDS011;47394;41.366;-8.738;2022-09-09T05:48:39;32.10;;;17.95;;
61525;SDS011;47394;41.366;-8.738;2022-09-09T05:50:41;41.08;;;17.98;;
61525;SDS011;47394;41.366;-8.738;2022-09-09T05:52:43;29.27;;;19.10;;
61525;SDS011;47394;41.366;-8.738;2022-09-09T05:54:44;30.75;;;19.65;;
61525;SDS011;47394;41.366;-8.738;2022-09-09T05:56:45;25.88;;;16.70;;
61525;SDS011;47394;41.366;-8.738;2022-09-09T05:58:46;25.42;;;16.15;;
61525;SDS011;47394;41.366;-8.738;2022-09-09T06:00:48;24.17;;;16.10;;
61525;SDS011;47394;41.366;-8.738;2022-09-09T06:02:51;25.17;;;14.13;;
61525;SDS011;47394;41.366;-8.738;2022-09-09T06:04:54;24.88;;;15.13;;
61525;SDS011;47394;41.366;-8.738;2022-09-09T06:06:57;20.67;;;15.80;;
61525;SDS011;47394;41.366;-8.738;2022-09-09T06:08:58;19.25;;;14.65;;
61525;SDS011;47394;41.366;-8.738;2022-09-09T06:13:03;29.52;;;16.23;;
61525;SDS011;47394;41.366;-8.738;2022-09-09T06:15:04;29.00;;;15.60;;
61525;SDS011;47394;41.366;-8.738;2022-09-09T06:17:05;36.65;;;16.40;;
61525;SDS011;47394;41.366;-8.738;2022-09-09T06:19:07;27.45;;;16.83;;
61525;SDS011;47394;41.366;-8.738;2022-09-09T06:21:13;22.58;;;16.23;;
61525;SDS011;47394;41.366;-8.738;2022-09-09T06:23:16;22.88;;;15.73;;
61525;SDS011;47394;41.366;-8.738;2022-09-09T06:25:17;26.88;;;17.27;;
61525;SDS011;47394;41.366;-8.738;2022-09-09T06:27:18;31.58;;;16.63;;
61525;SDS011;47394;41.366;-8.738;2022-09-09T06:29:19;18.75;;;14.80;;
61525;SDS011;47394;41.366;-8.738;2022-09-09T06:31:24;21.63;;;15.43;;
61525;SDS011;47394;41.366;-8.738;2022-09-09T06:33:30;34.30;;;19.52;;
61525;SDS011;47394;41.366;-8.738;2022-09-09T06:35:32;26.40;;;18.90;;
61525;SDS011;47394;41.366;-8.738;2022-09-09T06:37:33;34.83;;;20.83;;
61525;SDS011;47394;41.366;-8.738;2022-09-09T06:39:33;32.03;;;21.95;;
61525;SDS011;47394;41.366;-8.738;2022-09-09T06:41:34;33.03;;;21.23;;
61525;SDS011;47394;41.366;-8.738;2022-09-09T06:43:37;31.70;;;21.63;;
61525;SDS011;47394;41.366;-8.738;2022-09-09T06:45:38;34.05;;;24.55;;
61525;SDS011;47394;41.366;-8.738;2022-09-09T06:47:38;33.40;;;21.73;;
61525;SDS011;47394;41.366;-8.738;2022-09-09T06:49:39;35.70;;;24.23;;
61525;SDS011;47394;41.366;-8.738;2022-09-09T06:51:43;43.25;;;23.00;;
61525;SDS011;47394;41.366;-8.738;2022-09-09T06:53:45;43.45;;;25.00;;
61525;SDS011;47394;41.366;-8.738;2022-09-09T06:55:48;32.63;;;23.27;;
61525;SDS011;47394;41.366;-8.738;2022-09-09T06:57:49;34.38;;;21.70;;
61525;SDS011;47394;41.366;-8.738;2022-09-09T06:59:55;30.80;;;21.25;;
61525;SDS011;47394;41.366;-8.738;2022-09-09T07:01:56;42.22;;;22.95;;
61525;SDS011;47394;41.366;-8.738;2022-09-09T07:03:59;30.65;;;19.88;;
61525;SDS011;47394;41.366;-8.738;2022-09-09T07:06:01;30.80;;;18.98;;
61525;SDS011;47394;41.366;-8.738;2022-09-09T07:08:04;25.10;;;18.38;;
61525;SDS011;47394;41.366;-8.738;2022-09-09T07:10:06;26.88;;;18.15;;
61525;SDS011;47394;41.366;-8.738;2022-09-09T07:12:09;26.05;;;18.77;;
61525;SDS011;47394;41.366;-8.738;2022-09-09T07:14:14;24.98;;;16.45;;
61525;SDS011;47394;41.366;-8.738;2022-09-09T07:16:20;25.40;;;17.95;;
61525;SDS011;47394;41.366;-8.738;2022-09-09T07:18:25;27.48;;;18.60;;
61525;SDS011;47394;41.366;-8.738;2022-09-09T07:20:25;31.35;;;18.85;;
61525;SDS011;47394;41.366;-8.738;2022-09-09T07:22:27;24.42;;;17.42;;
61525;SDS011;47394;41.366;-8.738;2022-09-09T07:24:28;22.20;;;16.80;;
61525;SDS011;47394;41.366;-8.738;2022-09-09T07:26:30;20.73;;;15.95;;
61525;SDS011;47394;41.366;-8.738;2022-09-09T07:28:33;27.73;;;18.63;;
61525;SDS011;47394;41.366;-8.738;2022-09-09T07:30:35;25.20;;;17.98;;
61525;SDS011;47394;41.366;-8.738;2022-09-09T07:32:35;26.27;;;17.92;;
61525;SDS011;47394;41.366;-8.738;2022-09-09T07:34:36;25.52;;;17.30;;
61525;SDS011;47394;41.366;-8.738;2022-09-09T07:36:38;25.85;;;17.35;;
61525;SDS011;47394;41.366;-8.738;2022-09-09T07:38:42;26.05;;;18.48;;
61525;SDS011;47394;41.366;-8.738;2022-09-09T07:40:46;28.85;;;18.10;;
61525;SDS011;47394;41.366;-8.738;2022-09-09T07:42:47;22.52;;;16.05;;
61525;SDS011;47394;41.366;-8.738;2022-09-09T07:44:49;26.98;;;19.75;;
61525;SDS011;47394;41.366;-8.738;2022-09-09T07:46:55;31.52;;;19.90;;
61525;SDS011;47394;41.366;-8.738;2022-09-09T07:49:01;25.55;;;19.55;;
61525;SDS011;47394;41.366;-8.738;2022-09-09T07:51:06;25.55;;;19.30;;
61525;SDS011;47394;41.366;-8.738;2022-09-09T07:53:11;31.63;;;19.38;;
61525;SDS011;47394;41.366;-8.738;2022-09-09T07:55:12;30.17;;;19.17;;
61525;SDS011;47394;41.366;-8.738;2022-09-09T07:57:13;24.55;;;18.77;;
61525;SDS011;47394;41.366;-8.738;2022-09-09T07:59:16;25.90;;;18.60;;
61525;SDS011;47394;41.366;-8.738;2022-09-09T08:01:21;24.88;;;18.33;;
61525;SDS011;47394;41.366;-8.738;2022-09-09T08:03:27;26.85;;;18.05;;
61525;SDS011;47394;41.366;-8.738;2022-09-09T08:05:27;26.70;;;19.70;;
61525;SDS011;47394;41.366;-8.738;2022-09-09T08:07:29;29.30;;;20.45;;
61525;SDS011;47394;41.366;-8.738;2022-09-09T08:09:29;29.70;;;19.85;;
61525;SDS011;47394;41.366;-8.738;2022-09-09T08:11:39;33.97;;;19.55;;
61525;SDS011;47394;41.366;-8.738;2022-09-09T08:13:42;25.35;;;18.77;;
61525;SDS011;47394;41.366;-8.738;2022-09-09T08:15:44;25.13;;;19.02;;
61525;SDS011;47394;41.366;-8.738;2022-09-09T08:17:45;27.40;;;18.95;;
61525;SDS011;47394;41.366;-8.738;2022-09-09T08:19:46;25.58;;;19.27;;
61525;SDS011;47394;41.366;-8.738;2022-09-09T08:21:52;29.10;;;21.15;;
61525;SDS011;47394;41.366;-8.738;2022-09-09T08:23:52;32.13;;;20.80;;
61525;SDS011;47394;41.366;-8.738;2022-09-09T08:25:55;29.90;;;20.75;;
61525;SDS011;47394;41.366;-8.738;2022-09-09T08:28:03;30.90;;;22.08;;
61525;SDS011;47394;41.366;-8.738;2022-09-09T08:30:04;31.38;;;21.27;;
61525;SDS011;47394;41.366;-8.738;2022-09-09T08:32:05;29.65;;;20.63;;
61525;SDS011;47394;41.366;-8.738;2022-09-09T08:34:07;35.95;;;23.90;;
61525;SDS011;47394;41.366;-8.738;2022-09-09T08:36:10;33.80;;;23.00;;
61525;SDS011;47394;41.366;-8.738;2022-09-09T08:38:13;44.63;;;25.80;;
61525;SDS011;47394;41.366;-8.738;2022-09-09T08:40:17;36.92;;;24.55;;
61525;SDS011;47394;41.366;-8.738;2022-09-09T08:47:15;40.13;;;25.70;;
61525;SDS011;47394;41.366;-8.738;2022-09-09T08:51:41;45.42;;;27.25;;
61525;SDS011;47394;41.366;-8.738;2022-09-09T08:53:44;37.40;;;24.52;;
61525;SDS011;47394;41.366;-8.738;2022-09-09T08:55:57;37.53;;;25.02;;
61525;SDS011;47394;41.366;-8.738;2022-09-09T08:58:17;40.10;;;24.35;;
61525;SDS011;47394;41.366;-8.738;2022-09-09T09:00:21;33.50;;;22.92;;
61525;SDS011;47394;41.366;-8.738;2022-09-09T09:02:42;33.40;;;22.13;;
61525;SDS011;47394;41.366;-8.738;2022-09-09T09:05:09;32.92;;;23.50;;
61525;SDS011;47394;41.366;-8.738;2022-09-09T09:11:37;32.20;;;22.63;;
61525;SDS011;47394;41.366;-8.738;2022-09-09T09:16:23;35.05;;;22.60;;
61525;SDS011;47394;41.366;-8.738;2022-09-09T09:18:29;35.28;;;23.15;;
61525;SDS011;47394;41.366;-8.738;2022-09-09T09:20:35;32.42;;;23.63;;
61525;SDS011;47394;41.366;-8.738;2022-09-09T09:22:51;36.75;;;25.15;;
61525;SDS011;47394;41.366;-8.738;2022-09-09T09:27:46;34.13;;;24.48;;
61525;SDS011;47394;41.366;-8.738;2022-09-09T09:30:14;32.90;;;24.05;;
61525;SDS011;47394;41.366;-8.738;2022-09-09T09:32:20;34.58;;;24.88;;
61525;SDS011;47394;41.366;-8.738;2022-09-09T09:34:23;33.08;;;24.88;;
61525;SDS011;47394;41.366;-8.738;2022-09-09T09:36:37;37.92;;;24.55;;
61525;SDS011;47394;41.366;-8.738;2022-09-09T09:38:58;32.33;;;24.17;;
61525;SDS011;47394;41.366;-8.738;2022-09-09T09:41:02;32.70;;;23.25;;
61525;SDS011;47394;41.366;-8.738;2022-09-09T09:43:04;29.70;;;22.00;;
61525;SDS011;47394;41.366;-8.738;2022-09-09T09:45:29;30.65;;;21.75;;
61525;SDS011;47394;41.366;-8.738;2022-09-09T09:47:36;32.20;;;23.65;;
61525;SDS011;47394;41.366;-8.738;2022-09-09T09:49:51;28.58;;;22.33;;
61525;SDS011;47394;41.366;-8.738;2022-09-09T09:52:01;30.88;;;23.52;;
61525;SDS011;47394;41.366;-8.738;2022-09-09T09:54:20;32.95;;;24.15;;
61525;SDS011;47394;41.366;-8.738;2022-09-09T09:56:31;30.92;;;23.23;;
61525;SDS011;47394;41.366;-8.738;2022-09-09T10:00:50;30.90;;;23.50;;
61525;SDS011;47394;41.366;-8.738;2022-09-09T10:02:55;32.85;;;23.20;;
61525;SDS011;47394;41.366;-8.738;2022-09-09T10:05:13;26.52;;;20.08;;
61525;SDS011;47394;41.366;-8.738;2022-09-09T10:07:22;31.13;;;21.63;;
61525;SDS011;47394;41.366;-8.738;2022-09-09T10:09:24;29.98;;;22.17;;
61525;SDS011;47394;41.366;-8.738;2022-09-09T10:11:33;28.88;;;21.95;;
61525;SDS011;47394;41.366;-8.738;2022-09-09T10:14:12;29.42;;;21.55;;
61525;SDS011;47394;41.366;-8.738;2022-09-09T10:16:58;29.48;;;20.33;;
61525;SDS011;47394;41.366;-8.738;2022-09-09T10:20:59;24.30;;;18.10;;
61525;SDS011;47394;41.366;-8.738;2022-09-09T10:25:32;28.23;;;21.08;;
61525;SDS011;47394;41.366;-8.738;2022-09-09T10:32:16;32.92;;;19.98;;
61525;SDS011;47394;41.366;-8.738;2022-09-09T10:36:46;30.55;;;17.17;;
61525;SDS011;47394;41.366;-8.738;2022-09-09T10:38:53;30.75;;;16.08;;
61525;SDS011;47394;41.366;-8.738;2022-09-09T10:41:29;24.70;;;15.82;;
61525;SDS011;47394;41.366;-8.738;2022-09-09T10:46:01;30.05;;;18.08;;
61525;SDS011;47394;41.366;-8.738;2022-09-09T10:57:14;28.70;;;16.00;;
61525;SDS011;47394;41.366;-8.738;2022-09-09T10:59:20;27.42;;;17.45;;
61525;SDS011;47394;41.366;-8.738;2022-09-09T11:01:43;27.20;;;18.77;;
61525;SDS011;47394;41.366;-8.738;2022-09-09T11:03:49;27.92;;;19.05;;
61525;SDS011;47394;41.366;-8.738;2022-09-09T11:06:05;29.85;;;17.92;;
61525;SDS011;47394;41.366;-8.738;2022-09-09T11:08:12;33.88;;;18.33;;
61525;SDS011;47394;41.366;-8.738;2022-09-09T11:10:27;38.88;;;19.85;;
61525;SDS011;47394;41.366;-8.738;2022-09-09T11:12:35;38.03;;;19.95;;
61525;SDS011;47394;41.366;-8.738;2022-09-09T11:14:41;30.05;;;17.67;;
61525;SDS011;47394;41.366;-8.738;2022-09-09T11:16:57;38.17;;;20.17;;
61525;SDS011;47394;41.366;-8.738;2022-09-09T11:19:05;41.25;;;20.85;;
61525;SDS011;47394;41.366;-8.738;2022-09-09T11:21:29;37.78;;;22.77;;
61525;SDS011;47394;41.366;-8.738;2022-09-09T11:23:42;35.65;;;21.65;;
61525;SDS011;47394;41.366;-8.738;2022-09-09T11:25:49;38.43;;;21.23;;
61525;SDS011;47394;41.366;-8.738;2022-09-09T11:30:22;38.65;;;21.83;;
61525;SDS011;47394;41.366;-8.738;2022-09-09T11:44:19;42.00;;;23.63;;
61525;SDS011;47394;41.366;-8.738;2022-09-09T11:46:35;41.67;;;23.98;;
61525;SDS011;47394;41.366;-8.738;2022-09-09T11:48:42;39.17;;;24.00;;
61525;SDS011;47394;41.366;-8.738;2022-09-09T11:50:45;36.58;;;24.25;;
61525;SDS011;47394;41.366;-8.738;2022-09-09T11:55:11;35.80;;;25.23;;
61525;SDS011;47394;41.366;-8.738;2022-09-09T11:57:31;36.65;;;23.92;;
61525;SDS011;47394;41.366;-8.738;2022-09-09T11:59:35;37.75;;;25.27;;
61525;SDS011;47394;41.366;-8.738;2022-09-09T12:01:36;36.03;;;27.42;;
61525;SDS011;47394;41.366;-8.738;2022-09-09T12:03:46;39.55;;;27.23;;
61525;SDS011;47394;41.366;-8.738;2022-09-09T12:05:50;37.47;;;28.50;;
61525;SDS011;47394;41.366;-8.738;2022-09-09T12:07:56;36.30;;;25.98;;
61525;SDS011;47394;41.366;-8.738;2022-09-09T12:10:01;35.42;;;25.95;;
61525;SDS011;47394;41.366;-8.738;2022-09-09T12:12:24;39.28;;;26.33;;
61525;SDS011;47394;41.366;-8.738;2022-09-09T12:14:36;37.08;;;28.65;;
61525;SDS011;47394;41.366;-8.738;2022-09-09T12:16:44;43.25;;;29.05;;
61525;SDS011;47394;41.366;-8.738;2022-09-09T12:18:44;37.42;;;27.55;;
61525;SDS011;47394;41.366;-8.738;2022-09-09T12:30:12;42.92;;;30.45;;
61525;SDS011;47394;41.366;-8.738;2022-09-09T12:32:16;44.53;;;31.67;;
61525;SDS011;47394;41.366;-8.738;2022-09-09T12:36:29;48.20;;;32.55;;
61525;SDS011;47394;41.366;-8.738;2022-09-09T12:38:37;44.55;;;31.83;;
61525;SDS011;47394;41.366;-8.738;2022-09-09T12:40:40;48.15;;;33.22;;
61525;SDS011;47394;41.366;-8.738;2022-09-09T12:42:41;43.67;;;33.70;;
61525;SDS011;47394;41.366;-8.738;2022-09-09T12:44:50;48.80;;;33.90;;
61525;SDS011;47394;41.366;-8.738;2022-09-09T12:47:17;45.92;;;31.83;;
61525;SDS011;47394;41.366;-8.738;2022-09-09T12:49:42;41.15;;;31.90;;
61525;SDS011;47394;41.366;-8.738;2022-09-09T12:51:41;50.45;;;36.22;;
61525;SDS011;47394;41.366;-8.738;2022-09-09T12:53:43;51.63;;;37.00;;
61525;SDS011;47394;41.366;-8.738;2022-09-09T12:55:53;49.72;;;33.95;;
61525;SDS011;47394;41.366;-8.738;2022-09-09T12:58:00;54.88;;;38.83;;
61525;SDS011;47394;41.366;-8.738;2022-09-09T13:00:12;51.47;;;39.70;;
61525;SDS011;47394;41.366;-8.738;2022-09-09T13:02:22;53.95;;;39.33;;
61525;SDS011;47394;41.366;-8.738;2022-09-09T13:04:26;47.50;;;35.35;;
61525;SDS011;47394;41.366;-8.738;2022-09-09T13:06:30;48.97;;;36.83;;
61525;SDS011;47394;41.366;-8.738;2022-09-09T13:08:32;49.20;;;35.88;;
61525;SDS011;47394;41.366;-8.738;2022-09-09T13:10:34;47.88;;;38.50;;
61525;SDS011;47394;41.366;-8.738;2022-09-09T13:12:39;50.58;;;37.10;;
61525;SDS011;47394;41.366;-8.738;2022-09-09T13:19:06;42.05;;;32.55;;
61525;SDS011;47394;41.366;-8.738;2022-09-09T13:21:09;52.60;;;33.95;;
61525;SDS011;47394;41.366;-8.738;2022-09-09T13:23:10;40.70;;;32.10;;
61525;SDS011;47394;41.366;-8.738;2022-09-09T13:27:26;23.33;;;18.58;;
61525;SDS011;47394;41.366;-8.738;2022-09-09T13:29:30;17.42;;;14.82;;
61525;SDS011;47394;41.366;-8.738;2022-09-09T13:31:33;20.23;;;16.30;;
61525;SDS011;47394;41.366;-8.738;2022-09-09T13:33:37;22.08;;;13.68;;
61525;SDS011;47394;41.366;-8.738;2022-09-09T13:35:59;17.27;;;14.35;;
61525;SDS011;47394;41.366;-8.738;2022-09-09T13:38:08;10.68;;;9.18;;
61525;SDS011;47394;41.366;-8.738;2022-09-09T13:40:18;15.40;;;10.35;;
61525;SDS011;47394;41.366;-8.738;2022-09-09T13:42:26;7.22;;;6.50;;
61525;SDS011;47394;41.366;-8.738;2022-09-09T13:44:29;8.75;;;5.15;;
61525;SDS011;47394;41.366;-8.738;2022-09-09T13:46:36;8.57;;;5.97;;
61525;SDS011;47394;41.366;-8.738;2022-09-09T13:48:37;4.72;;;4.00;;
61525;SDS011;47394;41.366;-8.738;2022-09-09T13:50:37;5.25;;;4.65;;
61525;SDS011;47394;41.366;-8.738;2022-09-09T13:52:38;6.95;;;4.47;;
61525;SDS011;47394;41.366;-8.738;2022-09-09T13:54:40;6.10;;;4.35;;
61525;SDS011;47394;41.366;-8.738;2022-09-09T13:56:42;4.73;;;3.03;;
61525;SDS011;47394;41.366;-8.738;2022-09-09T13:58:43;5.32;;;3.33;;
61525;SDS011;47394;41.366;-8.738;2022-09-09T14:00:44;9.82;;;3.88;;
61525;SDS011;47394;41.366;-8.738;2022-09-09T14:02:46;5.25;;;3.40;;
61525;SDS011;47394;41.366;-8.738;2022-09-09T14:04:48;5.80;;;4.20;;
61525;SDS011;47394;41.366;-8.738;2022-09-09T14:06:51;5.07;;;3.42;;